Time;durP1;ratioP1;P1;durP2;ratioP2;P2;SDS_P1;SDS_P2;PMS_P1;PMS_P2;Temp;Humidity;BMP_temperature;BMP_pressure;BME280_temperature;BME280_humidity;BME280_pressure;Samples;Min_cycle;Max_cycle;Signal;HPM_P1;HPM_P2
2022/03/18 00:00:35;;;;;;;;;;;6.50;86.60;;;;;;5069828;28;20017;-70
2022/03/18 00:03:01;;;;;;;;;;;6.40;86.60;;;;;;5082273;28;20399;-70
2022/03/18 00:05:27;;;;;;;;;;;6.40;86.60;;;;;;5072792;28;19916;-70
2022/03/18 00:07:53;;;;;;;;;;;6.40;86.60;;;;;;5082665;28;19919;-70
2022/03/18 00:10:19;;;;;;;;;;;6.40;86.60;;;;;;5084025;28;20364;-70
2022/03/18 00:12:45;;;;;;;;;;;6.40;86.60;;;;;;5081079;28;19909;-70
2022/03/18 00:15:12;;;;;;;;;;;6.40;86.50;;;;;;5082457;28;19919;-70
2022/03/18 00:17:38;;;;;;;;;;;6.40;86.60;;;;;;5084842;28;19931;-70
2022/03/18 00:20:04;;;;;;;;;;;6.40;86.60;;;;;;5065697;28;20039;-70
2022/03/18 00:22:30;;;;;;;;;;;6.30;86.60;;;;;;5082420;28;20579;-70
2022/03/18 00:24:56;;;;;;;;;;;6.30;86.60;;;;;;5084606;28;20030;-70
2022/03/18 00:27:21;;;;;;;;;;;6.30;86.60;;;;;;5085624;28;20372;-70
2022/03/18 00:29:47;;;;;;;;;;;6.30;86.60;;;;;;5088680;28;19916;-70
2022/03/18 00:32:13;;;;;;;;;;;6.30;86.50;;;;;;5069581;28;19916;-70
2022/03/18 00:34:38;;;;;;;;;;;6.20;86.40;;;;;;5088281;28;19943;-70
2022/03/18 00:37:04;;;;;;;;;;;6.30;86.60;;;;;;5086650;28;19916;-70
2022/03/18 00:39:30;;;;;;;;;;;6.20;86.50;;;;;;5071859;28;19930;-70
2022/03/18 00:41:55;;;;;;;;;;;6.20;86.50;;;;;;5086992;28;19939;-70
2022/03/18 00:44:25;;;;;;;;;;;6.20;86.50;;;;;;5088357;28;19912;-70
2022/03/18 00:46:51;;;;;;;;;;;6.20;86.50;;;;;;5088046;28;19952;-70
2022/03/18 00:52:07;;;;;;;;;;;6.20;86.50;;;;;;5086622;28;20264;-70
2022/03/18 00:54:34;;;;;;;;;;;6.20;86.50;;;;;;5086435;28;20680;-70
2022/03/18 00:56:59;;;;;;;;;;;6.20;86.50;;;;;;5086129;28;19920;-70
2022/03/18 00:59:25;;;;;;;;;;;6.10;86.40;;;;;;5086344;28;19912;-70
2022/03/18 01:01:52;;;;;;;;;;;6.10;86.40;;;;;;5086610;28;19964;-70
2022/03/18 01:04:19;;;;;;;;;;;6.10;86.40;;;;;;5084567;28;20349;-70
2022/03/18 01:06:44;;;;;;;;;;;6.10;86.50;;;;;;5082724;28;19954;-70
2022/03/18 01:09:10;;;;;;;;;;;6.10;86.40;;;;;;5075235;28;19951;-70
2022/03/18 01:11:35;;;;;;;;;;;6.10;86.40;;;;;;5085782;28;19942;-70
2022/03/18 01:14:01;;;;;;;;;;;6.10;86.50;;;;;;5086989;28;20318;-70
2022/03/18 01:16:26;;;;;;;;;;;6.00;86.30;;;;;;5084216;28;19912;-70
2022/03/18 01:18:52;;;;;;;;;;;6.00;86.30;;;;;;5084828;28;19912;-70
2022/03/18 01:21:17;;;;;;;;;;;6.00;86.30;;;;;;5084272;28;19918;-70
2022/03/18 01:23:43;;;;;;;;;;;6.00;87.10;;;;;;5072094;28;20364;-70
2022/03/18 01:26:09;;;;;;;;;;;6.00;86.40;;;;;;5071167;28;19959;-70
2022/03/18 01:28:34;;;;;;;;;;;6.00;86.30;;;;;;5069686;28;19920;-70
2022/03/18 01:31:00;;;;;;;;;;;6.00;86.40;;;;;;5071291;28;20263;-70
2022/03/18 01:33:25;;;;;;;;;;;5.90;86.30;;;;;;5067543;28;19947;-70
2022/03/18 01:35:51;;;;;;;;;;;5.90;86.30;;;;;;5086017;28;20003;-70
2022/03/18 01:38:16;;;;;;;;;;;5.90;86.30;;;;;;5083241;28;19912;-70
2022/03/18 01:40:42;;;;;;;;;;;5.90;86.30;;;;;;5068550;28;19966;-70
2022/03/18 01:43:09;;;;;;;;;;;5.90;86.30;;;;;;5086489;28;19981;-70
2022/03/18 01:45:34;;;;;;;;;;;5.90;86.30;;;;;;5075308;28;19919;-70
2022/03/18 01:48:00;;;;;;;;;;;5.90;86.30;;;;;;5087095;28;19920;-70
2022/03/18 01:50:25;;;;;;;;;;;5.90;86.30;;;;;;5085750;28;19938;-70
2022/03/18 01:52:51;;;;;;;;;;;5.80;86.20;;;;;;5083675;28;19912;-70
2022/03/18 01:55:16;;;;;;;;;;;5.90;86.20;;;;;;5085710;28;19927;-70
2022/03/18 01:57:44;;;;;;;;;;;5.80;86.80;;;;;;5066757;28;19920;-70
2022/03/18 02:00:10;;;;;;;;;;;5.80;86.20;;;;;;5085869;28;20430;-70
2022/03/18 02:02:36;;;;;;;;;;;5.80;86.80;;;;;;5084935;28;19912;-70
2022/03/18 02:05:03;;;;;;;;;;;5.70;86.10;;;;;;5081945;28;19941;-70
2022/03/18 02:07:29;;;;;;;;;;;5.80;86.10;;;;;;5083458;28;19912;-70
2022/03/18 02:09:55;;;;;;;;;;;5.80;86.20;;;;;;5075369;28;20316;-70
2022/03/18 02:12:20;;;;;;;;;;;5.80;86.10;;;;;;5077689;28;19916;-70
2022/03/18 02:14:47;;;;;;;;;;;5.70;86.10;;;;;;5084835;28;19973;-70
2022/03/18 02:17:13;;;;;;;;;;;5.70;86.10;;;;;;5084894;28;19923;-70
2022/03/18 02:19:40;;;;;;;;;;;5.70;86.70;;;;;;5083384;28;19909;-70
2022/03/18 02:22:13;;;;;;;;;;;5.70;86.20;;;;;;5074608;28;19912;-70
2022/03/18 02:24:42;;;;;;;;;;;5.70;86.10;;;;;;5083753;28;19942;-70
2022/03/18 02:27:08;;;;;;;;;;;5.70;86.20;;;;;;5084152;28;20007;-70
2022/03/18 02:29:33;;;;;;;;;;;5.70;86.10;;;;;;5086306;28;20007;-70
2022/03/18 02:32:00;;;;;;;;;;;5.70;86.10;;;;;;5078897;28;19912;-70
2022/03/18 02:34:26;;;;;;;;;;;5.70;86.10;;;;;;5069450;28;19923;-70
2022/03/18 02:36:51;;;;;;;;;;;5.60;86.10;;;;;;5085928;28;19908;-70
2022/03/18 02:39:17;;;;;;;;;;;5.60;86.10;;;;;;5085088;28;20379;-70
2022/03/18 02:41:43;;;;;;;;;;;5.60;86.10;;;;;;5066138;28;19919;-70
2022/03/18 02:44:08;;;;;;;;;;;5.60;86.10;;;;;;5083252;28;20419;-70
2022/03/18 02:46:34;;;;;;;;;;;5.60;86.10;;;;;;5082903;28;19912;-70
2022/03/18 02:49:00;;;;;;;;;;;5.60;86.10;;;;;;5085393;28;19926;-70
2022/03/18 02:51:27;;;;;;;;;;;5.60;86.10;;;;;;5083574;28;20004;-70
2022/03/18 02:53:52;;;;;;;;;;;5.60;86.10;;;;;;5081925;28;20049;-70
2022/03/18 02:56:18;;;;;;;;;;;5.60;86.10;;;;;;5080989;28;20581;-70
2022/03/18 02:58:43;;;;;;;;;;;5.60;86.00;;;;;;5082201;28;19916;-71
2022/03/18 03:01:09;;;;;;;;;;;5.60;86.10;;;;;;5083437;28;19924;-70
2022/03/18 03:03:34;;;;;;;;;;;5.50;86.10;;;;;;5084047;28;19912;-70
2022/03/18 03:08:44;;;;;;;;;;;5.50;86.00;;;;;;5080859;28;20117;-71
2022/03/18 03:11:10;;;;;;;;;;;5.50;86.00;;;;;;5085236;28;20022;-70
2022/03/18 03:13:35;;;;;;;;;;;5.50;86.10;;;;;;5084657;28;19915;-70
2022/03/18 03:16:02;;;;;;;;;;;5.50;86.10;;;;;;5084464;28;20483;-70
2022/03/18 03:18:28;;;;;;;;;;;5.50;86.10;;;;;;5083816;28;19955;-70
2022/03/18 03:20:54;;;;;;;;;;;5.40;85.90;;;;;;5083682;28;20423;-70
2022/03/18 03:23:21;;;;;;;;;;;5.40;86.10;;;;;;5082107;28;19908;-70
2022/03/18 03:25:48;;;;;;;;;;;5.40;86.00;;;;;;5083525;28;19912;-70
2022/03/18 03:28:14;;;;;;;;;;;5.40;86.10;;;;;;5083554;28;19916;-70
2022/03/18 03:30:39;;;;;;;;;;;5.40;86.00;;;;;;5084350;28;19909;-70
2022/03/18 03:33:05;;;;;;;;;;;5.40;86.00;;;;;;5077999;28;19966;-71
2022/03/18 03:35:30;;;;;;;;;;;5.30;86.00;;;;;;5081255;28;19947;-70
2022/03/18 03:37:56;;;;;;;;;;;5.40;86.10;;;;;;5083298;28;19912;-70
2022/03/18 03:40:21;;;;;;;;;;;5.30;86.00;;;;;;5065272;28;20662;-70
2022/03/18 03:42:47;;;;;;;;;;;5.30;86.00;;;;;;5083808;28;19915;-70
2022/03/18 03:45:13;;;;;;;;;;;5.30;86.00;;;;;;5081021;28;19913;-70
2022/03/18 03:47:39;;;;;;;;;;;5.30;86.00;;;;;;5079975;28;19963;-70
2022/03/18 03:50:06;;;;;;;;;;;5.30;86.00;;;;;;5078888;28;19924;-70
2022/03/18 03:52:32;;;;;;;;;;;5.30;86.00;;;;;;5063185;28;20395;-70
2022/03/18 03:54:57;;;;;;;;;;;5.30;86.00;;;;;;5081955;28;20026;-70
2022/03/18 03:57:23;;;;;;;;;;;5.20;86.00;;;;;;5076418;28;20514;-70
2022/03/18 03:59:48;;;;;;;;;;;5.20;86.00;;;;;;5084526;28;19931;-70
2022/03/18 04:02:14;;;;;;;;;;;5.20;85.90;;;;;;5088731;28;19915;-70
2022/03/18 04:04:39;;;;;;;;;;;5.20;85.90;;;;;;5079547;28;19908;-70
2022/03/18 04:07:05;;;;;;;;;;;5.20;85.80;;;;;;5084521;28;19974;-70
2022/03/18 04:09:31;;;;;;;;;;;5.20;85.90;;;;;;5087037;28;19923;-70
2022/03/18 04:11:56;;;;;;;;;;;5.20;85.90;;;;;;5087626;28;19912;-70
2022/03/18 04:14:22;;;;;;;;;;;5.20;85.90;;;;;;5082898;28;19917;-70
2022/03/18 04:16:47;;;;;;;;;;;5.10;85.80;;;;;;5083770;28;20415;-70
2022/03/18 04:19:13;;;;;;;;;;;5.10;85.80;;;;;;5085571;28;20384;-70
2022/03/18 04:21:39;;;;;;;;;;;5.10;85.70;;;;;;5086367;28;19912;-70
2022/03/18 04:24:04;;;;;;;;;;;5.10;85.70;;;;;;5087327;28;19912;-70
2022/03/18 04:26:30;;;;;;;;;;;5.10;85.70;;;;;;5069679;28;20428;-70
2022/03/18 04:28:55;;;;;;;;;;;5.10;85.70;;;;;;5085689;28;19916;-71
2022/03/18 04:31:21;;;;;;;;;;;5.10;85.70;;;;;;5078199;28;19908;-70
2022/03/18 04:33:46;;;;;;;;;;;5.10;85.70;;;;;;5083831;28;19908;-71
2022/03/18 04:36:12;;;;;;;;;;;5.00;85.60;;;;;;5084933;28;19919;-70
2022/03/18 04:38:38;;;;;;;;;;;5.00;85.60;;;;;;5089055;28;19919;-70
2022/03/18 04:41:03;;;;;;;;;;;5.00;85.60;;;;;;5081525;28;20348;-70
2022/03/18 04:43:29;;;;;;;;;;;5.00;85.50;;;;;;5085538;28;20002;-70
2022/03/18 04:45:54;;;;;;;;;;;5.00;85.50;;;;;;5087822;28;19919;-70
2022/03/18 04:48:20;;;;;;;;;;;5.00;85.50;;;;;;5086691;28;20365;-70
2022/03/18 04:50:45;;;;;;;;;;;4.90;85.50;;;;;;5088594;28;19912;-70
2022/03/18 04:53:11;;;;;;;;;;;4.90;85.50;;;;;;5087560;28;20364;-70
2022/03/18 04:55:36;;;;;;;;;;;4.90;85.40;;;;;;5085327;28;19977;-70
2022/03/18 04:58:02;;;;;;;;;;;4.90;85.40;;;;;;5074159;28;20006;-70
2022/03/18 05:00:28;;;;;;;;;;;4.90;85.40;;;;;;5068579;28;19916;-70
2022/03/18 05:02:55;;;;;;;;;;;4.90;85.40;;;;;;5084867;28;19981;-70
2022/03/18 05:05:21;;;;;;;;;;;4.90;85.40;;;;;;5086459;28;19924;-70
2022/03/18 05:07:50;;;;;;;;;;;4.90;85.40;;;;;;5074612;28;19908;-70
2022/03/18 05:10:16;;;;;;;;;;;4.90;85.40;;;;;;5086054;28;20284;-70
2022/03/18 05:12:41;;;;;;;;;;;4.90;85.40;;;;;;5084914;28;19908;-70
2022/03/18 05:15:11;;;;;;;;;;;4.90;85.40;;;;;;5079781;28;19928;-70
2022/03/18 05:17:36;;;;;;;;;;;4.90;85.40;;;;;;5065549;28;19912;-70
2022/03/18 05:20:03;;;;;;;;;;;4.80;85.30;;;;;;5084683;28;20477;-70
2022/03/18 05:22:28;;;;;;;;;;;4.80;85.30;;;;;;5084543;28;20467;-70
2022/03/18 05:24:54;;;;;;;;;;;4.80;85.30;;;;;;5082096;28;19912;-70
2022/03/18 05:27:19;;;;;;;;;;;4.80;85.30;;;;;;5062524;28;19912;-70
2022/03/18 05:29:45;;;;;;;;;;;4.80;85.30;;;;;;5085570;28;20012;-70
2022/03/18 05:32:11;;;;;;;;;;;4.80;85.30;;;;;;5084214;28;19923;-70
2022/03/18 05:34:36;;;;;;;;;;;4.80;85.30;;;;;;5069208;28;19947;-70
2022/03/18 05:37:05;;;;;;;;;;;4.70;85.20;;;;;;5086634;28;19919;-70
2022/03/18 05:39:31;;;;;;;;;;;4.70;85.20;;;;;;5075817;28;20555;-70
2022/03/18 05:41:56;;;;;;;;;;;4.70;85.20;;;;;;5085225;28;19995;-70
2022/03/18 05:44:22;;;;;;;;;;;4.70;85.20;;;;;;5070369;28;19927;-70
2022/03/18 05:46:47;;;;;;;;;;;4.70;85.10;;;;;;5085506;28;19918;-70
2022/03/18 05:49:14;;;;;;;;;;;4.70;85.90;;;;;;5083478;28;20548;-70
2022/03/18 05:51:41;;;;;;;;;;;4.70;85.30;;;;;;5082517;28;20315;-70
2022/03/18 05:54:07;;;;;;;;;;;4.70;85.10;;;;;;5082857;28;20883;-70
2022/03/18 05:59:17;;;;;;;;;;;4.70;85.30;;;;;;5086854;28;20069;-70
2022/03/18 06:01:43;;;;;;;;;;;4.70;85.20;;;;;;5086966;28;19923;-70
2022/03/18 06:04:10;;;;;;;;;;;4.60;85.10;;;;;;5067261;28;19912;-70
2022/03/18 06:06:39;;;;;;;;;;;4.60;85.20;;;;;;5068086;28;19912;-70
2022/03/18 06:11:49;;;;;;;;;;;4.70;85.10;;;;;;5083753;28;20276;-70
2022/03/18 06:14:22;;;;;;;;;;;4.60;85.10;;;;;;5071171;28;19912;-70
2022/03/18 06:16:48;;;;;;;;;;;4.60;85.10;;;;;;5085715;28;19947;-70
2022/03/18 06:19:18;;;;;;;;;;;4.60;85.20;;;;;;5069029;28;20398;-70
2022/03/18 06:21:44;;;;;;;;;;;4.60;85.10;;;;;;5084793;28;20271;-70
2022/03/18 06:24:10;;;;;;;;;;;4.60;85.10;;;;;;5081677;28;19912;-70
2022/03/18 06:26:35;;;;;;;;;;;4.70;85.20;;;;;;5080192;28;20253;-70
2022/03/18 06:29:01;;;;;;;;;;;4.60;85.10;;;;;;5066782;28;19916;-70
2022/03/18 06:31:27;;;;;;;;;;;4.60;85.20;;;;;;5083451;28;20326;-70
2022/03/18 06:33:52;;;;;;;;;;;4.60;85.10;;;;;;5069006;28;19919;-70
2022/03/18 06:36:18;;;;;;;;;;;4.60;85.20;;;;;;5084488;28;19944;-70
2022/03/18 06:38:43;;;;;;;;;;;4.60;85.10;;;;;;5083553;28;19995;-69
2022/03/18 06:41:09;;;;;;;;;;;4.60;85.10;;;;;;5083774;28;19999;-70
2022/03/18 06:43:35;;;;;;;;;;;4.60;85.10;;;;;;5069087;28;19991;-70
2022/03/18 06:46:02;;;;;;;;;;;4.60;85.10;;;;;;5085630;28;19948;-70
2022/03/18 06:48:27;;;;;;;;;;;4.60;85.10;;;;;;5082842;28;19998;-70
2022/03/18 06:50:53;;;;;;;;;;;4.60;85.10;;;;;;5083283;28;20009;-70
2022/03/18 06:53:19;;;;;;;;;;;4.60;85.10;;;;;;5084632;28;19912;-70
2022/03/18 06:55:44;;;;;;;;;;;4.60;85.10;;;;;;5084026;28;19908;-70
2022/03/18 06:58:10;;;;;;;;;;;4.70;85.10;;;;;;5085678;28;19931;-71
2022/03/18 07:00:36;;;;;;;;;;;4.70;85.10;;;;;;5063560;28;19912;-70
2022/03/18 07:03:02;;;;;;;;;;;4.70;85.10;;;;;;5082776;28;19938;-70
2022/03/18 07:05:27;;;;;;;;;;;4.70;85.10;;;;;;5069316;28;19920;-69
2022/03/18 07:07:53;;;;;;;;;;;4.70;85.10;;;;;;5083706;28;19916;-69
2022/03/18 07:10:19;;;;;;;;;;;4.70;85.10;;;;;;5069589;28;19927;-71
2022/03/18 07:12:44;;;;;;;;;;;4.70;85.20;;;;;;5068267;28;19908;-69
2022/03/18 07:15:10;;;;;;;;;;;4.70;85.20;;;;;;5082395;28;19937;-69
2022/03/18 07:20:19;;;;;;;;;;;4.70;85.10;;;;;;5084940;28;20335;-70
2022/03/18 07:22:45;;;;;;;;;;;4.70;85.00;;;;;;5085257;28;19911;-70
2022/03/18 07:25:10;;;;;;;;;;;4.80;85.10;;;;;;5065643;28;19916;-69
2022/03/18 07:27:36;;;;;;;;;;;4.80;85.10;;;;;;5084740;28;20314;-70
2022/03/18 07:30:05;;;;;;;;;;;4.80;85.10;;;;;;5082465;28;20370;-69
2022/03/18 07:32:31;;;;;;;;;;;4.80;85.00;;;;;;5083236;28;20008;-71
2022/03/18 07:34:56;;;;;;;;;;;4.80;84.90;;;;;;5080813;28;20006;-69
2022/03/18 07:37:22;;;;;;;;;;;4.80;84.90;;;;;;5066444;28;19920;-70
2022/03/18 07:39:48;;;;;;;;;;;4.80;84.80;;;;;;5064807;28;19951;-69
2022/03/18 07:42:13;;;;;;;;;;;4.90;85.30;;;;;;5081906;28;19935;-69
2022/03/18 07:44:39;;;;;;;;;;;4.90;84.60;;;;;;5083145;28;19927;-69
2022/03/18 07:47:04;;;;;;;;;;;4.90;84.60;;;;;;5084796;28;19908;-69
2022/03/18 07:49:30;;;;;;;;;;;5.00;84.60;;;;;;5065698;28;19960;-69
2022/03/18 07:51:56;;;;;;;;;;;5.00;84.50;;;;;;5066686;28;20011;-69
2022/03/18 07:54:21;;;;;;;;;;;5.00;84.50;;;;;;5082720;28;19916;-69
2022/03/18 07:56:46;;;;;;;;;;;5.10;84.50;;;;;;5065352;28;20015;-69
2022/03/18 07:59:12;;;;;;;;;;;5.10;84.40;;;;;;5081263;28;19924;-69
2022/03/18 08:01:39;;;;;;;;;;;5.20;84.40;;;;;;5083150;28;20526;-69
2022/03/18 08:04:05;;;;;;;;;;;5.20;84.30;;;;;;5081394;28;20434;-69
2022/03/18 08:06:30;;;;;;;;;;;5.30;84.30;;;;;;5080057;28;19948;-69
2022/03/18 08:08:56;;;;;;;;;;;5.40;84.40;;;;;;5084757;28;20406;-70
2022/03/18 08:11:22;;;;;;;;;;;5.40;84.40;;;;;;5084617;28;19927;-69
2022/03/18 08:13:49;;;;;;;;;;;5.50;84.20;;;;;;5081176;28;19916;-69
2022/03/18 08:16:15;;;;;;;;;;;5.60;84.30;;;;;;5080579;28;20015;-69
2022/03/18 08:18:40;;;;;;;;;;;5.70;83.80;;;;;;5082528;28;20007;-69
2022/03/18 08:21:06;;;;;;;;;;;5.70;83.40;;;;;;5081786;28;19933;-69
2022/03/18 08:23:33;;;;;;;;;;;5.80;83.30;;;;;;5081280;28;19923;-69
2022/03/18 08:25:59;;;;;;;;;;;5.90;83.10;;;;;;5082684;28;19973;-69
2022/03/18 08:28:24;;;;;;;;;;;6.00;83.10;;;;;;5084394;28;19908;-69
2022/03/18 08:30:50;;;;;;;;;;;6.10;83.10;;;;;;5066138;28;19941;-69
2022/03/18 08:33:15;;;;;;;;;;;6.10;82.60;;;;;;5067193;28;19916;-69
2022/03/18 08:35:41;;;;;;;;;;;6.20;82.40;;;;;;5084477;28;20007;-69
2022/03/18 08:38:09;;;;;;;;;;;6.30;82.40;;;;;;5083390;28;20361;-69
2022/03/18 08:40:36;;;;;;;;;;;6.30;82.40;;;;;;5084085;28;19931;-69
2022/03/18 08:43:06;;;;;;;;;;;6.40;81.90;;;;;;5082381;28;19927;-70
2022/03/18 08:45:31;;;;;;;;;;;6.50;82.70;;;;;;5073265;28;19912;-69
2022/03/18 08:47:57;;;;;;;;;;;6.60;82.00;;;;;;5085623;28;19950;-69
2022/03/18 08:50:23;;;;;;;;;;;6.70;81.90;;;;;;5073236;28;19915;-69
2022/03/18 08:52:49;;;;;;;;;;;6.70;81.60;;;;;;5088196;28;19952;-69
2022/03/18 08:55:15;;;;;;;;;;;6.80;81.40;;;;;;5085207;28;19916;-69
2022/03/18 08:57:41;;;;;;;;;;;6.80;81.20;;;;;;5084757;28;19931;-70
2022/03/18 09:00:11;;;;;;;;;;;6.80;82.10;;;;;;5069868;28;20018;-69
2022/03/18 09:02:38;;;;;;;;;;;6.90;81.30;;;;;;5086364;28;19909;-69
2022/03/18 09:05:04;;;;;;;;;;;6.90;81.10;;;;;;5084496;28;20427;-69
2022/03/18 09:07:30;;;;;;;;;;;7.00;81.40;;;;;;5066818;28;20306;-69
2022/03/18 09:09:56;;;;;;;;;;;7.00;81.40;;;;;;5087369;28;19922;-69
2022/03/18 09:12:21;;;;;;;;;;;7.10;81.50;;;;;;5076882;28;19916;-69
2022/03/18 09:14:47;;;;;;;;;;;7.00;81.40;;;;;;5070310;28;19919;-69
2022/03/18 09:17:12;;;;;;;;;;;7.10;81.50;;;;;;5085862;28;20334;-69
2022/03/18 09:19:38;;;;;;;;;;;7.10;81.60;;;;;;5084885;28;20583;-69
2022/03/18 09:22:07;;;;;;;;;;;7.10;81.60;;;;;;5073958;28;19927;-69
2022/03/18 09:24:33;;;;;;;;;;;7.10;81.50;;;;;;5082702;28;20038;-69
2022/03/18 09:26:59;;;;;;;;;;;7.20;81.30;;;;;;5069105;28;19981;-69
2022/03/18 09:29:27;;;;;;;;;;;7.20;81.20;;;;;;5072780;28;19916;-69
2022/03/18 09:31:53;;;;;;;;;;;7.30;81.20;;;;;;5084256;28;19916;-69
2022/03/18 09:34:22;;;;;;;;;;;7.30;81.20;;;;;;5084604;28;19923;-69
2022/03/18 09:36:48;;;;;;;;;;;7.30;81.30;;;;;;5085483;28;19916;-69
2022/03/18 09:39:14;;;;;;;;;;;7.30;81.10;;;;;;5076930;28;19915;-69
2022/03/18 09:41:39;;;;;;;;;;;7.30;81.00;;;;;;5084093;28;19912;-69
2022/03/18 09:44:05;;;;;;;;;;;7.40;81.20;;;;;;5086979;28;19995;-69
2022/03/18 09:46:31;;;;;;;;;;;7.40;81.10;;;;;;5086551;28;20007;-69
2022/03/18 09:48:56;;;;;;;;;;;7.40;81.20;;;;;;5085695;28;19951;-69
2022/03/18 09:51:22;;;;;;;;;;;7.40;81.10;;;;;;5086601;28;19966;-69
2022/03/18 09:53:47;;;;;;;;;;;7.40;80.90;;;;;;5085400;28;19920;-69
2022/03/18 09:56:13;;;;;;;;;;;7.40;81.10;;;;;;5083698;28;19916;-69
2022/03/18 09:58:38;;;;;;;;;;;7.40;81.10;;;;;;5085035;28;20009;-69
2022/03/18 10:01:04;;;;;;;;;;;7.40;80.90;;;;;;5084348;28;20020;-69
2022/03/18 10:03:40;;;;;;;;;;;7.50;81.10;;;;;;5086861;28;19912;-69
2022/03/18 10:06:06;;;;;;;;;;;7.50;80.90;;;;;;5086843;28;19912;-69
2022/03/18 10:08:34;;;;;;;;;;;7.50;80.90;;;;;;5085379;28;19908;-69
2022/03/18 10:11:12;;;;;;;;;;;7.50;80.90;;;;;;5070341;28;20341;-69
2022/03/18 10:13:50;;;;;;;;;;;7.60;80.90;;;;;;5082068;28;19919;-69
2022/03/18 10:16:29;;;;;;;;;;;7.60;80.90;;;;;;5071286;28;19912;-69
2022/03/18 10:18:54;;;;;;;;;;;7.60;80.70;;;;;;5070187;28;19908;-69
2022/03/18 10:21:19;;;;;;;;;;;7.70;80.90;;;;;;5071563;28;19908;-69
2022/03/18 10:23:45;;;;;;;;;;;7.70;80.70;;;;;;5086255;28;20474;-69
2022/03/18 10:26:13;;;;;;;;;;;7.70;80.70;;;;;;5085381;28;19931;-69
2022/03/18 10:28:43;;;;;;;;;;;7.80;80.90;;;;;;5086100;28;20002;-69
2022/03/18 10:31:15;;;;;;;;;;;7.80;80.80;;;;;;5072133;28;19933;-69
2022/03/18 10:39:25;;;;;;;;;;;7.90;80.90;;;;;;5081955;28;20383;-69
2022/03/18 10:41:51;;;;;;;;;;;8.00;80.80;;;;;;5080906;28;19920;-69
2022/03/18 10:44:17;;;;;;;;;;;8.00;81.00;;;;;;5068337;28;20524;-69
2022/03/18 10:46:43;;;;;;;;;;;8.10;80.70;;;;;;5084909;28;19908;-69
2022/03/18 10:49:10;;;;;;;;;;;8.10;80.70;;;;;;5081755;28;20007;-69
2022/03/18 10:51:36;;;;;;;;;;;8.20;80.80;;;;;;5069565;28;19943;-69
2022/03/18 10:54:01;;;;;;;;;;;8.20;80.50;;;;;;5080571;28;20516;-69
2022/03/18 10:56:27;;;;;;;;;;;8.30;80.30;;;;;;5082779;28;19916;-69
2022/03/18 10:58:53;;;;;;;;;;;8.40;80.40;;;;;;5069156;28;19916;-69
2022/03/18 11:01:19;;;;;;;;;;;8.40;80.20;;;;;;5085620;28;20233;-69
2022/03/18 11:03:45;;;;;;;;;;;8.50;80.40;;;;;;5082669;28;19991;-69
2022/03/18 11:06:10;;;;;;;;;;;8.70;80.30;;;;;;5068244;28;19969;-69
2022/03/18 11:08:45;;;;;;;;;;;8.70;80.20;;;;;;5081665;28;20424;-69
2022/03/18 11:11:17;;;;;;;;;;;8.80;80.20;;;;;;5082692;28;20097;-69
2022/03/18 11:14:01;;;;;;;;;;;8.90;80.30;;;;;;5077471;28;19915;-69
2022/03/18 11:16:29;;;;;;;;;;;9.10;80.30;;;;;;5082549;28;20023;-69
2022/03/18 11:18:56;;;;;;;;;;;9.20;78.90;;;;;;5070876;28;19916;-68
2022/03/18 11:21:25;;;;;;;;;;;9.30;78.60;;;;;;5071594;28;20483;-68
2022/03/18 11:23:54;;;;;;;;;;;9.40;78.30;;;;;;5082292;28;19916;-69
2022/03/18 11:26:19;;;;;;;;;;;9.60;77.40;;;;;;5082141;28;19909;-69
2022/03/18 11:28:45;;;;;;;;;;;9.70;77.30;;;;;;5086848;28;19912;-68
2022/03/18 11:31:16;;;;;;;;;;;9.80;76.70;;;;;;5084383;28;20423;-69
2022/03/18 11:34:02;;;;;;;;;;;10.00;76.40;;;;;;5079778;28;19910;-69
2022/03/18 11:36:27;;;;;;;;;;;10.10;76.40;;;;;;5082331;28;19916;-68
2022/03/18 11:38:54;;;;;;;;;;;10.20;76.40;;;;;;5074916;28;19912;-68
2022/03/18 11:41:20;;;;;;;;;;;10.30;76.50;;;;;;5084487;28;19934;-68
2022/03/18 11:43:45;;;;;;;;;;;10.50;76.20;;;;;;5067120;28;19912;-69
2022/03/18 11:46:13;;;;;;;;;;;10.60;76.30;;;;;;5083631;28;20410;-69
2022/03/18 11:48:51;;;;;;;;;;;10.70;76.60;;;;;;5075238;28;19995;-69
2022/03/18 11:51:32;;;;;;;;;;;10.80;76.20;;;;;;5068459;28;19939;-69
2022/03/18 11:53:59;;;;;;;;;;;10.90;76.60;;;;;;5079775;28;20650;-69
2022/03/18 11:56:47;;;;;;;;;;;11.00;75.70;;;;;;5080692;28;20474;-69
2022/03/18 11:59:25;;;;;;;;;;;11.10;75.70;;;;;;5078563;28;20546;-69
2022/03/18 12:01:53;;;;;;;;;;;11.20;76.00;;;;;;5068664;28;19920;-69
2022/03/18 12:04:34;;;;;;;;;;;11.30;76.50;;;;;;5084469;28;19916;-69
2022/03/18 12:07:19;;;;;;;;;;;11.30;76.90;;;;;;5084741;28;19908;-69
2022/03/18 12:09:57;;;;;;;;;;;11.40;76.70;;;;;;5080727;28;20000;-68
2022/03/18 12:12:23;;;;;;;;;;;11.50;76.70;;;;;;5083043;28;19919;-69
2022/03/18 12:14:49;;;;;;;;;;;11.60;77.00;;;;;;5084876;28;19916;-69
2022/03/18 12:17:15;;;;;;;;;;;11.60;76.90;;;;;;5084364;28;20368;-69
2022/03/18 12:19:47;;;;;;;;;;;11.70;77.00;;;;;;5087290;28;19927;-69
2022/03/18 12:22:13;;;;;;;;;;;11.70;77.00;;;;;;5075611;28;20321;-69
2022/03/18 12:24:40;;;;;;;;;;;11.80;77.10;;;;;;5084747;28;19923;-69
2022/03/18 12:27:06;;;;;;;;;;;11.80;77.10;;;;;;5085197;28;20057;-68
2022/03/18 12:29:31;;;;;;;;;;;11.90;77.20;;;;;;5086799;28;20002;-68
2022/03/18 12:32:04;;;;;;;;;;;11.90;77.40;;;;;;5087233;28;19912;-69
2022/03/18 12:34:29;;;;;;;;;;;12.00;77.50;;;;;;5083382;28;19913;-69
2022/03/18 12:36:55;;;;;;;;;;;12.00;77.20;;;;;;5086431;28;19935;-69
2022/03/18 12:39:24;;;;;;;;;;;12.10;77.70;;;;;;5068365;28;19927;-69
2022/03/18 12:41:50;;;;;;;;;;;12.10;77.50;;;;;;5085466;28;19955;-69
2022/03/18 12:44:29;;;;;;;;;;;12.10;77.70;;;;;;5087203;28;19962;-68
2022/03/18 12:46:55;;;;;;;;;;;12.10;77.60;;;;;;5069183;28;19908;-68
2022/03/18 12:49:29;;;;;;;;;;;12.20;77.60;;;;;;5083922;28;19947;-68
2022/03/18 12:51:54;;;;;;;;;;;12.20;77.80;;;;;;5085002;28;19923;-68
2022/03/18 12:54:20;;;;;;;;;;;12.30;77.70;;;;;;5084342;28;19924;-68
2022/03/18 12:56:46;;;;;;;;;;;12.30;78.40;;;;;;5085350;28;19920;-68
2022/03/18 12:59:18;;;;;;;;;;;12.30;77.80;;;;;;5087341;28;19923;-68
2022/03/18 13:01:54;;;;;;;;;;;12.40;78.70;;;;;;5087867;28;19912;-68
2022/03/18 13:04:20;;;;;;;;;;;12.40;78.00;;;;;;5086667;28;19959;-69
2022/03/18 13:06:49;;;;;;;;;;;12.50;77.80;;;;;;5085179;28;19965;-68
2022/03/18 13:09:15;;;;;;;;;;;12.50;78.90;;;;;;5085924;28;19919;-69
2022/03/18 13:11:41;;;;;;;;;;;12.50;79.00;;;;;;5084604;28;19949;-70
2022/03/18 13:14:07;;;;;;;;;;;12.50;78.50;;;;;;5085815;28;19912;-69
2022/03/18 13:16:36;;;;;;;;;;;12.60;78.40;;;;;;5068884;28;19912;-69
2022/03/18 13:19:03;;;;;;;;;;;12.60;79.20;;;;;;5068824;28;19995;-69
2022/03/18 13:21:37;;;;;;;;;;;12.60;79.60;;;;;;5085518;28;20426;-69
2022/03/18 13:24:03;;;;;;;;;;;12.60;79.10;;;;;;5084173;28;19916;-69
2022/03/18 13:26:29;;;;;;;;;;;12.70;79.50;;;;;;5086172;28;19962;-69
2022/03/18 13:28:54;;;;;;;;;;;12.70;79.00;;;;;;5085240;28;19991;-69
2022/03/18 13:34:04;;;;;;;;;;;12.70;78.00;;;;;;5084469;28;20488;-69
2022/03/18 13:36:39;;;;;;;;;;;12.80;78.20;;;;;;5084230;28;19916;-69
2022/03/18 13:39:06;;;;;;;;;;;12.80;78.30;;;;;;5080920;28;20627;-69
2022/03/18 13:42:04;;;;;;;;;;;12.80;78.50;;;;;;5084454;28;19915;-69
2022/03/18 13:44:43;;;;;;;;;;;12.80;78.00;;;;;;5039050;28;19920;-69
2022/03/18 13:47:08;;;;;;;;;;;12.90;78.00;;;;;;5085957;28;20478;-69
2022/03/18 13:49:34;;;;;;;;;;;12.90;77.30;;;;;;5086917;28;19916;-69
2022/03/18 13:52:04;;;;;;;;;;;12.90;77.50;;;;;;5083374;28;20018;-69
2022/03/18 13:54:39;;;;;;;;;;;13.00;78.50;;;;;;5084470;28;19919;-69
2022/03/18 13:57:05;;;;;;;;;;;13.00;77.70;;;;;;5082443;28;20045;-69
2022/03/18 13:59:31;;;;;;;;;;;13.00;77.80;;;;;;5085941;28;19981;-69
2022/03/18 14:02:06;;;;;;;;;;;13.00;77.70;;;;;;5082079;28;20023;-69
2022/03/18 14:04:39;;;;;;;;;;;13.00;77.90;;;;;;5080672;28;19954;-69
2022/03/18 14:07:05;;;;;;;;;;;13.00;78.10;;;;;;5085705;28;19909;-69
2022/03/18 14:09:31;;;;;;;;;;;13.10;78.90;;;;;;5086266;28;20465;-69
2022/03/18 14:12:09;;;;;;;;;;;13.10;77.90;;;;;;5069959;28;19969;-69
2022/03/18 14:14:36;;;;;;;;;;;13.10;78.60;;;;;;5083395;28;19965;-69
2022/03/18 14:17:08;;;;;;;;;;;13.10;78.70;;;;;;5082225;28;19918;-69
2022/03/18 14:19:47;;;;;;;;;;;13.10;78.60;;;;;;5084177;28;19955;-69
2022/03/18 14:22:32;;;;;;;;;;;13.20;78.90;;;;;;5081644;28;19975;-69
2022/03/18 14:24:58;;;;;;;;;;;13.10;79.00;;;;;;5085601;28;20449;-69
2022/03/18 14:27:24;;;;;;;;;;;13.20;78.50;;;;;;5080423;28;19916;-69
2022/03/18 14:29:49;;;;;;;;;;;13.20;78.40;;;;;;5082280;28;19981;-69
2022/03/18 14:32:15;;;;;;;;;;;13.20;78.10;;;;;;5084708;28;20894;-69
2022/03/18 14:34:41;;;;;;;;;;;13.20;78.90;;;;;;5085710;28;19992;-69
2022/03/18 14:37:07;;;;;;;;;;;13.20;79.20;;;;;;5084961;28;19916;-69
2022/03/18 14:39:32;;;;;;;;;;;13.20;79.40;;;;;;5083891;28;19932;-69
2022/03/18 14:41:58;;;;;;;;;;;13.20;79.20;;;;;;5080480;28;20659;-69
2022/03/18 14:44:23;;;;;;;;;;;13.20;79.00;;;;;;5081113;28;19912;-69
2022/03/18 14:46:49;;;;;;;;;;;13.20;78.60;;;;;;5082557;28;19940;-69